الكل
Sorkjosen Airport (Nordreisa, Troms) SOJ حالة الطقس
|
Nordreisa, Troms (SOJ / ENSR)
سماء صافية
شديد الرياح |
|
9 °C |
توقع منطقة محطة المطارSOJ
| Date | Time (CEST) | Flight Rules | Wind Dir. | Speed | Type | Height AGL (ft) | Visibility | Remarks | ||||||
|---|---|---|---|---|---|---|---|---|---|---|---|---|---|---|
محفوظات أحدث تقرير روتيني عن حالة الطقس من أجل الطيران (الميتار )SOJ
| Date | Time (CEST) | Flight Rules | Wind Dir. | Speed | Type | Height AGL (ft) | Visibility | Temp (°C) | Temp (°F) | Dew Point (°C) | Dew Point (°F) | Rel. Humid. | Pressure | Density Altitude | Remarks |
|---|---|---|---|---|---|---|---|---|---|---|---|---|---|---|---|
| 09-ماي | 11:50 | VFR | 130° | 21 kt | 10000 meters | 9° | 48° | -2° | 28° | 46% | 1019 mb | -875 ft | |||
| 09-ماي | 11:20 | VFR | 130° | 23 kt | 10000 meters | 9° | 48° | -2° | 28° | 46% | 1019 mb | -875 ft | |||
| 09-ماي | 10:50 | VFR | 140° | 22 kt | 10000 meters | 8° | 46° | -2° | 28° | 49% | 1020 mb | -1,025 ft | |||
| 09-ماي | 10:20 | VFR | 140° | 19 kt | 10000 meters | 8° | 46° | -2° | 28° | 49% | 1020 mb | -1,025 ft | |||
| 09-ماي | 09:50 | VFR | 130° | 22 kt | 10000 meters | 7° | 44° | -3° | 26° | 49% | 1020 mb | -1,145 ft | |||
| 09-ماي | 09:20 | VFR | 130° | 20 kt | 10000 meters | 7° | 44° | -3° | 26° | 49% | 1021 mb | -1,174 ft | |||
| 09-ماي | 08:50 | VFR | 130° | 19 kt | 10000 meters | 7° | 44° | -3° | 26° | 49% | 1021 mb | -1,174 ft | |||
| 09-ماي | 08:20 | VFR | 130° | 20 kt | 10000 meters | 7° | 44° | -3° | 26° | 49% | 1021 mb | -1,174 ft | |||
| 09-ماي | 07:50 | VFR | 140° | 17 kt | 10000 meters | 7° | 44° | -3° | 26° | 49% | 1022 mb | -1,204 ft | |||
| 09-ماي | 07:20 | VFR | 140° | 13 kt | 10000 meters | 6° | 42° | -3° | 26° | 52% | 1022 mb | -1,324 ft | |||
| 09-ماي | 06:50 | VFR | 150° | 14 kt | 10000 meters | 5° | 41° | -3° | 26° | 56% | 1023 mb | -1,473 ft | |||
| 09-ماي | 06:20 | VFR | 150° | 10 kt | 10000 meters | 4° | 39° | -2° | 28° | 65% | 1023 mb | -1,593 ft | |||
| 09-ماي | 05:50 | VFR | 150° | 9 kt | 10000 meters | 4° | 39° | -2° | 28° | 65% | 1023 mb | -1,593 ft | |||
| 09-ماي | 05:20 | VFR | 120° | 9 kt | 10000 meters | 3° | 37° | -2° | 28° | 70% | 1024 mb | -1,743 ft | |||
| 09-ماي | 04:50 | VFR | 130° | 9 kt | 10000 meters | 3° | 37° | -2° | 28° | 70% | 1024 mb | -1,743 ft | |||
| 09-ماي | 04:20 | VFR | 140° | 8 kt | 10000 meters | 2° | 35° | -2° | 28° | 75% | 1025 mb | -1,892 ft | |||
| 09-ماي | 03:50 | VFR | 130° | 6 kt | 10000 meters | 1° | 33° | -2° | 28° | 80% | 1025 mb | -2,012 ft | |||
| 09-ماي | 03:20 | VFR | 150° | 3 kt | 10000 meters | 0° | 32° | -3° | 26° | 80% | 1025 mb | -2,132 ft | |||
| 09-ماي | 02:50 | VFR | 160° | 4 kt | 10000 meters | 1° | 33° | -2° | 28° | 80% | 1025 mb | -2,012 ft | |||
| 09-ماي | 02:20 | VFR | 140° | 3 kt | 10000 meters | 0° | 32° | -2° | 28° | 86% | 1026 mb | -2,162 ft | |||
| 09-ماي | 01:50 | VFR | Variable | 1 kt | 10000 meters | 0° | 32° | -2° | 28° | 86% | 1026 mb | -2,162 ft | |||
| 09-ماي | 01:20 | VFR | 280° | 1 kt | 10000 meters | 0° | 32° | -1° | 30° | 93% | 1026 mb | -2,162 ft | |||
| 09-ماي | 00:50 | VFR | Variable | 2 kt | 10000 meters | 0° | 32° | -2° | 28° | 86% | 1026 mb | -2,162 ft | |||
| 09-ماي | 00:20 | VFR | Variable | 1 kt | 10000 meters | 0° | 32° | -1° | 30° | 93% | 1026 mb | -2,162 ft |
تسجيل الدخول
| مُتصفحك غير مُدعَّم. قم بترقية متصفحك |
